createdAt,value
2018-07-07T00:01:29.131Z,6.25
2018-07-07T00:03:57.136Z,5.95
2018-07-07T00:06:25.223Z,6.42
2018-07-07T00:08:53.191Z,6.70
2018-07-07T00:11:21.144Z,6.03
2018-07-07T00:13:49.380Z,6.22
2018-07-07T00:16:18.278Z,6.22
2018-07-07T00:18:46.254Z,6.30
2018-07-07T00:21:14.570Z,6.15
2018-07-07T00:23:42.627Z,6.10
2018-07-07T00:26:10.634Z,6.28
2018-07-07T00:28:38.612Z,5.85
2018-07-07T00:31:06.577Z,6.05
2018-07-07T00:33:35.247Z,6.25
2018-07-07T00:36:03.329Z,5.90
2018-07-07T00:38:31.274Z,6.62
2018-07-07T00:40:59.265Z,6.53
2018-07-07T00:43:27.206Z,6.22
2018-07-07T00:45:55.298Z,6.53
2018-07-07T00:48:25.132Z,6.20
2018-07-07T00:50:53.064Z,6.50
2018-07-07T00:53:20.975Z,6.08
2018-07-07T00:55:48.879Z,6.45
2018-07-07T00:58:16.811Z,6.15
2018-07-07T01:00:49.363Z,6.15
2018-07-07T01:03:18.489Z,6.08
2018-07-07T01:05:47.437Z,5.92
2018-07-07T01:08:16.156Z,6.12
2018-07-07T01:10:44.329Z,6.03
2018-07-07T01:13:12.591Z,5.90
2018-07-07T01:15:40.900Z,6.75
2018-07-07T01:18:09.392Z,6.70
2018-07-07T01:20:37.323Z,6.70
2018-07-07T01:23:05.612Z,6.72
2018-07-07T01:25:33.798Z,6.40
2018-07-07T01:28:01.735Z,6.85
2018-07-07T01:30:30.538Z,6.10
2018-07-07T01:32:58.495Z,6.70
2018-07-07T01:35:26.488Z,6.28
2018-07-07T01:37:54.457Z,6.37
2018-07-07T01:40:22.409Z,6.17
2018-07-07T01:42:50.586Z,6.25
2018-07-07T01:45:18.610Z,6.60
2018-07-07T01:47:46.514Z,6.53
2018-07-07T01:50:14.543Z,6.75
2018-07-07T01:52:42.459Z,6.85
2018-07-07T01:55:10.470Z,7.00
2018-07-07T01:57:38.770Z,6.58
2018-07-07T02:00:06.866Z,7.05
2018-07-07T02:02:34.865Z,6.90
2018-07-07T02:05:02.863Z,7.00
2018-07-07T02:07:30.762Z,7.80
2018-07-07T02:09:58.733Z,7.20
2018-07-07T02:12:26.714Z,6.92
2018-07-07T02:14:54.796Z,6.75
2018-07-07T02:17:22.815Z,6.80
2018-07-07T02:19:50.824Z,6.85
2018-07-07T02:22:21.908Z,7.08
2018-07-07T02:24:50.648Z,7.22
2018-07-07T02:27:18.755Z,7.12
2018-07-07T02:29:47.155Z,7.22
2018-07-07T02:32:15.198Z,6.97
2018-07-07T02:34:43.414Z,7.60
2018-07-07T02:37:11.338Z,7.10
2018-07-07T02:39:39.333Z,7.00
2018-07-07T02:42:07.253Z,7.40
2018-07-07T02:44:35.831Z,7.33
2018-07-07T02:47:03.784Z,7.10
2018-07-07T02:49:31.782Z,7.83
2018-07-07T02:51:59.721Z,7.33
2018-07-07T02:54:27.649Z,7.50
2018-07-07T02:56:55.605Z,7.75
2018-07-07T02:59:23.625Z,7.55
2018-07-07T03:01:51.632Z,7.37
2018-07-07T03:04:19.986Z,7.45
2018-07-07T03:06:47.935Z,7.70
2018-07-07T03:09:15.901Z,7.95
2018-07-07T03:11:44.264Z,7.53
2018-07-07T03:14:12.179Z,7.45
2018-07-07T03:16:40.129Z,7.33
2018-07-07T03:19:08.240Z,7.80
2018-07-07T03:21:36.266Z,7.80
2018-07-07T03:24:04.195Z,7.53
2018-07-07T03:26:32.090Z,7.75
2018-07-07T03:28:59.969Z,8.10
2018-07-07T03:31:27.922Z,7.70
2018-07-07T03:33:56.788Z,8.38
2018-07-07T03:36:24.744Z,7.40
2018-07-07T03:38:52.746Z,7.33
2018-07-07T03:41:20.796Z,7.90
2018-07-07T03:43:48.704Z,8.45
2018-07-07T03:46:16.626Z,7.55
2018-07-07T03:48:44.611Z,7.17
2018-07-07T03:51:12.552Z,7.65
2018-07-07T03:53:40.559Z,7.50
2018-07-07T03:56:09.272Z,7.53
2018-07-07T03:58:37.213Z,7.25
2018-07-07T04:01:05.191Z,7.72
2018-07-07T04:03:33.129Z,7.40
2018-07-07T04:06:01.026Z,7.33
2018-07-07T04:08:29.106Z,7.50
2018-07-07T04:10:57.059Z,7.15
2018-07-07T04:13:24.961Z,7.25
2018-07-07T04:15:53.656Z,7.70
2018-07-07T04:18:28.251Z,7.37
2018-07-07T04:20:56.244Z,6.83
2018-07-07T04:23:24.186Z,7.37
2018-07-07T04:25:52.959Z,7.53
2018-07-07T04:28:20.874Z,7.50
2018-07-07T04:30:48.812Z,6.97
2018-07-07T04:33:16.768Z,7.00
2018-07-07T04:35:44.889Z,6.85
2018-07-07T04:38:12.895Z,6.87
2018-07-07T04:40:40.770Z,7.35
2018-07-07T04:43:08.750Z,7.05
2018-07-07T04:45:36.716Z,7.45
2018-07-07T04:48:04.777Z,6.80
2018-07-07T04:50:33.207Z,6.97
2018-07-07T04:53:01.166Z,6.85
2018-07-07T04:55:29.177Z,7.03
2018-07-07T04:57:57.073Z,6.87
2018-07-07T05:00:25.009Z,7.42
2018-07-07T05:02:52.888Z,7.10
2018-07-07T05:05:20.887Z,7.08
2018-07-07T05:07:48.890Z,7.15
2018-07-07T05:10:16.901Z,6.92
2018-07-07T05:12:44.884Z,7.00
2018-07-07T05:15:12.863Z,7.45
2018-07-07T05:17:40.901Z,7.28
2018-07-07T05:20:08.868Z,8.05
2018-07-07T05:22:36.762Z,7.10
2018-07-07T05:25:04.740Z,7.53
2018-07-07T05:27:32.738Z,6.92
2018-07-07T05:30:00.987Z,7.22
2018-07-07T05:32:29.054Z,7.10
2018-07-07T05:34:57.032Z,8.73
2018-07-07T05:37:24.965Z,7.22
2018-07-07T05:39:53.040Z,6.92
2018-07-07T05:42:21.006Z,8.95
2018-07-07T05:44:48.965Z,6.78
2018-07-07T05:47:16.926Z,7.40
2018-07-07T05:49:46.002Z,7.23
2018-07-07T05:52:14.363Z,6.90
2018-07-07T05:54:43.847Z,6.92
2018-07-07T05:57:11.987Z,6.87
2018-07-07T05:59:39.997Z,7.10
2018-07-07T06:02:07.926Z,7.35
2018-07-07T06:04:35.952Z,7.30
2018-07-07T06:07:04.280Z,7.03
2018-07-07T06:09:32.586Z,7.40
2018-07-07T06:12:00.590Z,6.70
2018-07-07T06:14:28.588Z,7.40
2018-07-07T06:16:57.135Z,7.60
2018-07-07T06:19:25.111Z,7.30
2018-07-07T06:21:53.357Z,7.42
2018-07-07T06:24:22.288Z,7.47
2018-07-07T06:26:50.375Z,7.90
2018-07-07T06:29:18.251Z,7.20
2018-07-07T06:31:46.286Z,7.37
2018-07-07T06:34:14.295Z,7.42
2018-07-07T06:36:42.370Z,7.50
2018-07-07T06:39:15.421Z,7.95
2018-07-07T06:41:43.571Z,7.55
2018-07-07T06:44:11.747Z,7.47
2018-07-07T06:46:39.662Z,7.22
2018-07-07T06:49:07.688Z,7.55
2018-07-07T06:51:35.758Z,8.08
2018-07-07T06:54:03.978Z,7.65
2018-07-07T06:56:32.577Z,7.20
2018-07-07T06:59:01.393Z,7.87
2018-07-07T07:01:29.273Z,7.40
2018-07-07T07:03:57.221Z,6.90
2018-07-07T07:06:25.699Z,6.90
2018-07-07T07:08:54.542Z,7.08
2018-07-07T07:11:22.601Z,6.92
2018-07-07T07:13:50.568Z,6.87
2018-07-07T07:16:18.557Z,7.87
2018-07-07T07:18:47.272Z,9.23
2018-07-07T07:21:15.467Z,7.97
2018-07-07T07:23:43.462Z,13.13
2018-07-07T07:26:11.480Z,7.35
2018-07-07T07:28:39.557Z,10.48
2018-07-07T07:31:07.630Z,8.18
2018-07-07T07:33:35.520Z,6.78
2018-07-07T07:36:07.748Z,7.83
2018-07-07T07:38:35.761Z,9.05
2018-07-07T07:41:03.823Z,8.90
2018-07-07T07:43:31.910Z,6.85
2018-07-07T07:45:59.811Z,6.90
2018-07-07T07:48:27.830Z,7.28
2018-07-07T07:50:56.265Z,7.33
2018-07-07T07:53:24.241Z,6.85
2018-07-07T07:55:52.433Z,6.70
2018-07-07T07:58:20.517Z,6.58
2018-07-07T08:00:48.544Z,5.83
2018-07-07T08:03:16.500Z,6.30
2018-07-07T08:05:44.570Z,6.60
2018-07-07T08:08:12.579Z,6.37
2018-07-07T08:10:40.580Z,6.20
2018-07-07T08:13:08.555Z,6.33
2018-07-07T08:15:36.535Z,6.00
2018-07-07T08:18:04.978Z,6.35
2018-07-07T08:20:32.959Z,6.20
2018-07-07T08:23:00.905Z,6.08
2018-07-07T08:25:29.466Z,6.00
2018-07-07T08:27:57.434Z,6.00
2018-07-07T08:30:25.584Z,6.00
2018-07-07T08:32:53.550Z,6.60
2018-07-07T08:35:21.654Z,6.55
2018-07-07T08:37:49.647Z,6.72
2018-07-07T08:42:56.028Z,6.78
2018-07-07T08:45:24.020Z,6.33
2018-07-07T08:47:52.009Z,7.80
2018-07-07T08:50:19.984Z,7.97
2018-07-07T08:52:48.203Z,7.53
2018-07-07T08:55:16.139Z,6.80
2018-07-07T08:57:44.127Z,6.65
2018-07-07T09:00:12.086Z,7.80
2018-07-07T09:02:40.107Z,8.23
2018-07-07T09:05:08.066Z,6.83
2018-07-07T09:07:36.092Z,6.92
2018-07-07T09:10:04.221Z,7.45
2018-07-07T09:12:33.070Z,6.42
2018-07-07T09:15:01.038Z,6.62
2018-07-07T09:17:29.087Z,8.03
2018-07-07T09:19:57.066Z,6.37
2018-07-07T09:22:24.988Z,6.10
2018-07-07T09:24:53.030Z,6.60
2018-07-07T09:27:21.105Z,10.82
2018-07-07T09:29:49.111Z,8.45
2018-07-07T09:32:17.123Z,8.23
2018-07-07T09:34:45.225Z,7.00
2018-07-07T09:37:13.269Z,6.08
2018-07-07T09:39:41.190Z,6.65
2018-07-07T09:42:09.116Z,5.70
2018-07-07T09:44:37.909Z,7.15
2018-07-07T09:47:05.899Z,6.58
2018-07-07T09:49:33.908Z,6.00
2018-07-07T09:52:01.871Z,5.75
2018-07-07T09:54:30.206Z,5.87
2018-07-07T09:56:58.354Z,6.78
2018-07-07T09:59:26.315Z,6.45
2018-07-07T10:01:54.460Z,6.25
2018-07-07T10:04:23.044Z,5.60
2018-07-07T10:06:51.074Z,5.60
2018-07-07T10:09:19.145Z,5.80
2018-07-07T10:11:47.130Z,6.37
2018-07-07T10:14:15.096Z,7.05
2018-07-07T10:16:44.220Z,6.28
2018-07-07T10:19:12.800Z,7.12
2018-07-07T10:21:42.063Z,6.37
2018-07-07T10:24:10.188Z,5.75
2018-07-07T10:26:38.277Z,6.00
2018-07-07T10:29:06.427Z,5.87
2018-07-07T10:31:34.746Z,5.30
2018-07-07T10:34:02.767Z,5.97
2018-07-07T10:36:30.843Z,6.05
2018-07-07T10:38:58.878Z,6.08
2018-07-07T10:41:26.870Z,5.53
2018-07-07T10:43:55.502Z,5.70
2018-07-07T10:46:23.675Z,6.03
2018-07-07T10:48:51.633Z,5.87
2018-07-07T10:51:19.660Z,6.42
2018-07-07T10:53:47.696Z,5.83
2018-07-07T10:56:15.794Z,6.35
2018-07-07T10:58:43.863Z,6.97
2018-07-07T11:01:11.865Z,6.70
2018-07-07T11:03:40.196Z,5.70
2018-07-07T11:06:08.157Z,5.70
2018-07-07T11:08:36.598Z,5.90
2018-07-07T11:11:04.802Z,5.85
2018-07-07T11:13:32.771Z,5.42
2018-07-07T11:16:01.092Z,5.50
2018-07-07T11:18:30.152Z,5.40
2018-07-07T11:20:58.960Z,5.47
2018-07-07T11:23:26.924Z,4.62
2018-07-07T11:25:54.931Z,5.25
2018-07-07T11:28:22.902Z,5.33
2018-07-07T11:30:51.111Z,4.83
2018-07-07T11:33:19.136Z,5.08
2018-07-07T11:35:47.512Z,5.17
2018-07-07T11:38:15.709Z,4.60
2018-07-07T11:40:43.918Z,4.60
2018-07-07T11:43:12.108Z,4.33
2018-07-07T11:45:40.074Z,4.42
2018-07-07T11:48:08.220Z,4.20
2018-07-07T11:50:37.308Z,4.20
2018-07-07T11:53:06.232Z,4.28
2018-07-07T11:55:34.194Z,4.50
2018-07-07T11:58:03.289Z,4.25
2018-07-07T12:00:31.435Z,3.92
2018-07-07T12:03:00.959Z,4.00
2018-07-07T12:05:29.116Z,3.70
2018-07-07T12:08:00.902Z,4.10
2018-07-07T12:10:25.863Z,4.30
2018-07-07T12:12:53.797Z,4.28
2018-07-07T12:15:22.682Z,5.00
2018-07-07T12:17:50.724Z,4.72
2018-07-07T12:20:18.776Z,5.12
2018-07-07T12:22:47.290Z,5.05
2018-07-07T12:25:15.424Z,4.47
2018-07-07T12:27:44.628Z,4.78
2018-07-07T12:30:12.612Z,4.70
2018-07-07T12:32:40.667Z,5.15
2018-07-07T12:35:08.634Z,5.20
2018-07-07T12:37:37.629Z,6.25
2018-07-07T12:40:05.704Z,6.87
2018-07-07T12:42:34.127Z,6.87
2018-07-07T12:45:02.214Z,7.20
2018-07-07T12:47:30.280Z,7.45
2018-07-07T12:49:59.610Z,7.90
2018-07-07T12:52:27.698Z,7.62
2018-07-07T12:54:55.700Z,7.33
2018-07-07T12:57:23.714Z,7.95
2018-07-07T12:59:51.726Z,8.45
2018-07-07T13:02:19.695Z,8.35
2018-07-07T13:04:47.630Z,8.45
2018-07-07T13:07:15.668Z,8.95
2018-07-07T13:09:43.680Z,8.90
2018-07-07T13:12:11.619Z,11.15
2018-07-07T13:14:39.570Z,9.73
2018-07-07T13:17:07.871Z,10.48
2018-07-07T13:19:35.805Z,11.97
2018-07-07T13:22:04.027Z,12.18
2018-07-07T13:24:31.999Z,11.60
2018-07-07T13:27:01.514Z,11.30
2018-07-07T13:29:29.552Z,10.35
2018-07-07T13:31:57.527Z,10.70
2018-07-07T13:34:25.567Z,11.38
2018-07-07T13:36:53.574Z,9.58
2018-07-07T13:39:21.664Z,9.85
2018-07-07T13:41:49.682Z,9.53
2018-07-07T13:44:17.633Z,9.53
2018-07-07T13:46:45.845Z,9.90
2018-07-07T13:49:13.741Z,9.08
2018-07-07T13:51:42.009Z,8.48
2018-07-07T13:54:10.019Z,7.97
2018-07-07T13:56:37.964Z,8.55
2018-07-07T13:59:05.950Z,8.25
2018-07-07T14:01:33.912Z,8.20
2018-07-07T14:04:02.075Z,8.53
2018-07-07T14:06:30.617Z,8.20
2018-07-07T14:08:58.640Z,8.10
2018-07-07T14:11:26.590Z,8.55
2018-07-07T14:13:54.573Z,8.23
2018-07-07T14:16:22.565Z,8.95
2018-07-07T14:18:50.501Z,8.78
2018-07-07T14:21:18.500Z,8.33
2018-07-07T14:23:46.434Z,7.37
2018-07-07T14:26:14.433Z,7.22
2018-07-07T14:28:42.364Z,8.00
2018-07-07T14:31:10.403Z,7.20
2018-07-07T14:33:38.460Z,7.65
2018-07-07T14:36:06.432Z,7.25
2018-07-07T14:38:36.534Z,7.78
2018-07-07T14:41:13.629Z,7.72
2018-07-07T14:43:56.250Z,8.10
2018-07-07T14:46:24.654Z,8.40
2018-07-07T14:48:52.691Z,8.40
2018-07-07T14:51:20.672Z,9.65
2018-07-07T14:53:49.029Z,7.50
2018-07-07T14:56:18.501Z,7.05
2018-07-07T14:58:46.592Z,7.62
2018-07-07T15:01:14.693Z,7.92
2018-07-07T15:03:43.672Z,7.35
2018-07-07T15:06:11.764Z,9.13
2018-07-07T15:08:39.781Z,10.45
2018-07-07T15:11:08.239Z,10.48
2018-07-07T15:13:36.236Z,11.35
2018-07-07T15:16:04.198Z,11.78
2018-07-07T15:18:33.218Z,10.68
2018-07-07T15:21:01.349Z,9.28
2018-07-07T15:23:29.641Z,8.95
2018-07-07T15:25:57.842Z,8.95
2018-07-07T15:28:25.805Z,8.65
2018-07-07T15:30:53.852Z,8.93
2018-07-07T15:33:21.870Z,9.13
2018-07-07T15:35:49.970Z,9.03
2018-07-07T15:38:17.909Z,9.60
2018-07-07T15:40:45.971Z,10.32
2018-07-07T15:43:13.934Z,8.80
2018-07-07T15:45:42.005Z,8.85
2018-07-07T15:48:10.173Z,8.18
2018-07-07T15:50:38.624Z,8.38
2018-07-07T15:53:06.760Z,8.28
2018-07-07T15:55:34.714Z,8.65
2018-07-07T15:58:02.805Z,8.40
2018-07-07T16:00:30.794Z,8.70
2018-07-07T16:02:58.780Z,8.90
2018-07-07T16:05:26.912Z,8.73
2018-07-07T16:07:55.204Z,8.63
2018-07-07T16:10:23.243Z,9.20
2018-07-07T16:12:51.831Z,9.13
2018-07-07T16:15:19.913Z,9.03
2018-07-07T16:17:48.069Z,9.60
2018-07-07T16:20:16.038Z,10.93
2018-07-07T16:22:44.312Z,10.30
2018-07-07T16:25:12.273Z,9.48
2018-07-07T16:27:40.820Z,9.53
2018-07-07T16:30:08.965Z,8.30
2018-07-07T16:32:37.014Z,7.70
2018-07-07T16:35:05.099Z,8.35
2018-07-07T16:37:33.085Z,8.40
2018-07-07T16:40:01.603Z,8.23
2018-07-07T16:42:29.754Z,8.65
2018-07-07T16:44:58.348Z,7.97
2018-07-07T16:47:26.478Z,8.28
2018-07-07T16:49:54.893Z,8.00
2018-07-07T16:52:23.264Z,8.20
2018-07-07T16:54:51.473Z,8.35
2018-07-07T16:57:19.653Z,7.80
2018-07-07T16:59:47.790Z,7.17
2018-07-07T17:02:16.990Z,6.95
2018-07-07T17:04:45.250Z,6.78
2018-07-07T17:07:14.298Z,6.50
2018-07-07T17:09:42.473Z,6.08
2018-07-07T17:12:10.764Z,5.67
2018-07-07T17:14:38.853Z,6.30
2018-07-07T17:17:07.004Z,5.35
2018-07-07T17:19:35.101Z,5.85
2018-07-07T17:22:03.453Z,5.78
2018-07-07T17:24:31.989Z,5.17
2018-07-07T17:27:00.340Z,5.00
2018-07-07T17:29:28.593Z,4.72
2018-07-07T17:31:57.296Z,4.90
2018-07-07T17:34:26.506Z,5.42
2018-07-07T17:36:54.848Z,5.08
2018-07-07T17:39:22.871Z,4.90
2018-07-07T17:41:51.315Z,4.70
2018-07-07T17:44:19.498Z,5.10
2018-07-07T17:46:47.865Z,4.53
2018-07-07T17:49:17.679Z,4.65
2018-07-07T17:51:45.841Z,4.92
2018-07-07T17:54:14.381Z,5.03
2018-07-07T17:56:42.759Z,5.30
2018-07-07T17:59:10.818Z,5.17
2018-07-07T18:01:39.326Z,5.17
2018-07-07T18:04:07.456Z,4.45
2018-07-07T18:06:35.436Z,4.50
2018-07-07T18:09:04.097Z,4.87
2018-07-07T18:11:32.509Z,4.58
2018-07-07T18:14:00.471Z,4.87
2018-07-07T18:16:28.513Z,4.75
2018-07-07T18:18:56.447Z,4.40
2018-07-07T18:21:24.533Z,4.70
2018-07-07T18:23:52.524Z,4.53
2018-07-07T18:26:20.540Z,4.37
2018-07-07T18:28:49.110Z,4.70
2018-07-07T18:31:17.611Z,4.40
2018-07-07T18:33:45.587Z,4.50
2018-07-07T18:36:13.613Z,4.70
2018-07-07T18:38:42.637Z,4.62
2018-07-07T18:41:10.555Z,4.30
2018-07-07T18:43:38.584Z,4.62
2018-07-07T18:46:06.876Z,4.65
2018-07-07T18:48:34.859Z,4.58
2018-07-07T18:51:02.836Z,4.17
2018-07-07T18:53:31.006Z,4.85
2018-07-07T18:55:58.998Z,4.42
2018-07-07T18:58:26.987Z,4.78
2018-07-07T19:00:55.044Z,4.53
2018-07-07T19:03:23.057Z,5.95
2018-07-07T19:05:51.083Z,4.62
2018-07-07T19:08:19.106Z,4.85
2018-07-07T19:10:47.092Z,4.72
2018-07-07T19:13:15.107Z,5.28
2018-07-07T19:15:47.231Z,4.28
2018-07-07T19:18:16.432Z,4.67
2018-07-07T19:20:49.945Z,4.60
2018-07-07T19:23:23.559Z,4.87
2018-07-07T19:25:57.376Z,4.22
2018-07-07T19:28:25.441Z,4.95
2018-07-07T19:30:53.308Z,5.03
2018-07-07T19:33:26.869Z,4.78
2018-07-07T19:36:00.400Z,4.65
2018-07-07T19:38:28.436Z,4.67
2018-07-07T19:40:56.439Z,4.70
2018-07-07T19:43:25.226Z,4.80
2018-07-07T19:45:53.258Z,4.80
2018-07-07T19:48:21.342Z,4.70
2018-07-07T19:50:49.893Z,5.20
2018-07-07T19:53:18.129Z,4.95
2018-07-07T19:55:46.107Z,4.60
2018-07-07T19:58:14.107Z,4.72
2018-07-07T20:00:42.080Z,4.78
2018-07-07T20:03:10.060Z,5.20
2018-07-07T20:05:37.978Z,5.20
2018-07-07T20:08:05.962Z,5.30
2018-07-07T20:10:33.921Z,4.90
2018-07-07T20:13:02.006Z,4.58
2018-07-07T20:15:41.245Z,5.67
2018-07-07T20:18:09.299Z,4.80
2018-07-07T20:20:43.297Z,4.97
2018-07-07T20:23:13.633Z,5.10
2018-07-07T20:25:41.949Z,5.45
2018-07-07T20:28:15.544Z,5.30
2018-07-07T20:30:43.554Z,5.00
2018-07-07T20:33:11.479Z,5.35
2018-07-07T20:35:39.657Z,5.25
2018-07-07T20:38:07.778Z,5.10
2018-07-07T20:40:35.757Z,5.20
2018-07-07T20:43:03.822Z,7.67
2018-07-07T20:45:31.878Z,5.30
2018-07-07T20:47:59.834Z,5.00
2018-07-07T20:50:28.001Z,7.35
2018-07-07T20:52:56.190Z,5.70
2018-07-07T20:55:24.147Z,5.47
2018-07-07T20:57:52.502Z,4.95
2018-07-07T21:00:20.564Z,5.22
2018-07-07T21:02:48.538Z,5.15
2018-07-07T21:05:16.607Z,5.42
2018-07-07T21:07:44.782Z,5.40
2018-07-07T21:10:12.860Z,5.50
2018-07-07T21:12:41.148Z,6.53
2018-07-07T21:15:09.323Z,4.75
2018-07-07T21:17:37.358Z,5.00
2018-07-07T21:20:05.516Z,5.33
2018-07-07T21:22:33.580Z,5.20
2018-07-07T21:25:01.681Z,5.12
2018-07-07T21:27:29.825Z,5.20
2018-07-07T21:29:58.137Z,5.83
2018-07-07T21:32:26.201Z,5.62
2018-07-07T21:34:54.229Z,5.50
2018-07-07T21:37:22.284Z,5.55
2018-07-07T21:39:50.366Z,5.30
2018-07-07T21:42:18.307Z,5.45
2018-07-07T21:44:46.339Z,5.37
2018-07-07T21:47:14.358Z,5.25
2018-07-07T21:49:42.471Z,5.50
2018-07-07T21:52:10.547Z,5.35
2018-07-07T21:54:38.565Z,4.80
2018-07-07T21:57:06.603Z,5.12
2018-07-07T21:59:34.615Z,5.03
2018-07-07T22:02:08.297Z,5.17
2018-07-07T22:04:41.892Z,5.08
2018-07-07T22:07:15.338Z,5.15
2018-07-07T22:09:43.755Z,5.15
2018-07-07T22:12:11.977Z,5.37
2018-07-07T22:14:40.033Z,6.22
2018-07-07T22:17:08.146Z,6.25
2018-07-07T22:19:36.185Z,4.78
2018-07-07T22:22:07.383Z,4.90
2018-07-07T22:24:35.589Z,7.20
2018-07-07T22:27:05.763Z,6.30
2018-07-07T22:29:33.890Z,5.40
2018-07-07T22:32:03.368Z,5.20
2018-07-07T22:34:32.644Z,5.30
2018-07-07T22:37:01.243Z,5.55
2018-07-07T22:39:32.688Z,5.33
2018-07-07T22:42:02.040Z,5.70
2018-07-07T22:44:30.300Z,5.58
2018-07-07T22:46:58.399Z,5.70
2018-07-07T22:49:26.995Z,6.40
2018-07-07T22:51:55.138Z,5.90
2018-07-07T22:54:23.283Z,6.08
2018-07-07T22:56:51.294Z,6.75
2018-07-07T22:59:19.356Z,6.05
2018-07-07T23:01:47.337Z,5.92
2018-07-07T23:04:15.342Z,6.22
2018-07-07T23:06:44.225Z,6.20
2018-07-07T23:09:13.408Z,6.83
2018-07-07T23:11:41.448Z,6.35
2018-07-07T23:14:09.417Z,6.35
2018-07-07T23:16:39.571Z,5.90
2018-07-07T23:19:07.922Z,6.03
2018-07-07T23:21:35.838Z,6.08
2018-07-07T23:24:04.273Z,5.97
2018-07-07T23:26:32.382Z,5.72
2018-07-07T23:29:01.414Z,5.60
2018-07-07T23:31:29.406Z,6.12
2018-07-07T23:33:57.472Z,5.90
2018-07-07T23:36:25.505Z,6.10
2018-07-07T23:38:53.481Z,5.58
2018-07-07T23:41:22.431Z,5.80
2018-07-07T23:43:50.496Z,5.92
2018-07-07T23:46:18.462Z,6.00
2018-07-07T23:48:46.522Z,6.10
2018-07-07T23:51:14.571Z,6.03
2018-07-07T23:53:42.499Z,5.97
2018-07-07T23:56:10.438Z,6.08
2018-07-07T23:58:38.406Z,5.67
